sensor_id;sensor_type;location;lat;lon;timestamp;P1;durP1;ratioP1;P2;durP2;ratioP2
32501;SDS011;18952;52.516;13.460;2023-03-23T00:02:25;5.35;;;3.05;;
32501;SDS011;18952;52.516;13.460;2023-03-23T00:04:51;6.95;;;3.25;;
32501;SDS011;18952;52.516;13.460;2023-03-23T00:07:17;7.50;;;3.10;;
32501;SDS011;18952;52.516;13.460;2023-03-23T00:09:43;9.93;;;3.45;;
32501;SDS011;18952;52.516;13.460;2023-03-23T00:12:08;4.85;;;3.10;;
32501;SDS011;18952;52.516;13.460;2023-03-23T00:14:34;5.70;;;2.92;;
32501;SDS011;18952;52.516;13.460;2023-03-23T00:17:00;8.00;;;3.22;;
32501;SDS011;18952;52.516;13.460;2023-03-23T00:19:25;6.85;;;3.60;;
32501;SDS011;18952;52.516;13.460;2023-03-23T00:21:51;6.57;;;3.33;;
32501;SDS011;18952;52.516;13.460;2023-03-23T00:24:17;8.07;;;3.47;;
32501;SDS011;18952;52.516;13.460;2023-03-23T00:26:44;7.05;;;3.65;;
32501;SDS011;18952;52.516;13.460;2023-03-23T00:29:18;7.68;;;3.53;;
32501;SDS011;18952;52.516;13.460;2023-03-23T00:31:45;5.38;;;3.22;;
32501;SDS011;18952;52.516;13.460;2023-03-23T00:34:12;7.18;;;3.50;;
32501;SDS011;18952;52.516;13.460;2023-03-23T00:36:43;6.13;;;3.38;;
32501;SDS011;18952;52.516;13.460;2023-03-23T00:39:08;9.35;;;3.28;;
32501;SDS011;18952;52.516;13.460;2023-03-23T00:41:34;5.75;;;3.05;;
32501;SDS011;18952;52.516;13.460;2023-03-23T00:43:59;7.43;;;3.00;;
32501;SDS011;18952;52.516;13.460;2023-03-23T00:46:25;5.93;;;3.25;;
32501;SDS011;18952;52.516;13.460;2023-03-23T00:48:52;5.22;;;3.00;;
32501;SDS011;18952;52.516;13.460;2023-03-23T00:51:18;6.63;;;3.28;;
32501;SDS011;18952;52.516;13.460;2023-03-23T00:53:44;5.28;;;2.85;;
32501;SDS011;18952;52.516;13.460;2023-03-23T00:56:10;6.20;;;3.22;;
32501;SDS011;18952;52.516;13.460;2023-03-23T00:58:36;5.15;;;3.25;;
32501;SDS011;18952;52.516;13.460;2023-03-23T01:01:02;6.53;;;3.42;;
32501;SDS011;18952;52.516;13.460;2023-03-23T01:03:28;9.77;;;3.20;;
32501;SDS011;18952;52.516;13.460;2023-03-23T01:05:54;5.47;;;3.10;;
32501;SDS011;18952;52.516;13.460;2023-03-23T01:08:20;5.82;;;2.92;;
32501;SDS011;18952;52.516;13.460;2023-03-23T01:10:47;4.60;;;2.63;;
32501;SDS011;18952;52.516;13.460;2023-03-23T01:13:13;7.20;;;3.17;;
32501;SDS011;18952;52.516;13.460;2023-03-23T01:15:40;5.65;;;2.90;;
32501;SDS011;18952;52.516;13.460;2023-03-23T01:18:06;8.05;;;3.22;;
32501;SDS011;18952;52.516;13.460;2023-03-23T01:20:32;6.88;;;2.85;;
32501;SDS011;18952;52.516;13.460;2023-03-23T01:22:59;7.25;;;3.13;;
32501;SDS011;18952;52.516;13.460;2023-03-23T01:25:29;4.80;;;2.60;;
32501;SDS011;18952;52.516;13.460;2023-03-23T01:27:57;4.45;;;2.53;;
32501;SDS011;18952;52.516;13.460;2023-03-23T01:30:23;5.78;;;2.90;;
32501;SDS011;18952;52.516;13.460;2023-03-23T01:32:50;6.80;;;3.10;;
32501;SDS011;18952;52.516;13.460;2023-03-23T01:35:16;8.27;;;3.08;;
32501;SDS011;18952;52.516;13.460;2023-03-23T01:37:42;4.78;;;2.88;;
32501;SDS011;18952;52.516;13.460;2023-03-23T01:40:09;4.13;;;2.80;;
32501;SDS011;18952;52.516;13.460;2023-03-23T01:42:36;6.93;;;3.28;;
32501;SDS011;18952;52.516;13.460;2023-03-23T01:45:25;4.80;;;2.88;;
32501;SDS011;18952;52.516;13.460;2023-03-23T01:50:34;4.57;;;2.60;;
32501;SDS011;18952;52.516;13.460;2023-03-23T01:53:07;6.55;;;2.95;;
32501;SDS011;18952;52.516;13.460;2023-03-23T01:55:34;5.35;;;2.88;;
32501;SDS011;18952;52.516;13.460;2023-03-23T01:58:02;4.00;;;2.67;;
32501;SDS011;18952;52.516;13.460;2023-03-23T02:00:28;11.32;;;3.30;;
32501;SDS011;18952;52.516;13.460;2023-03-23T02:02:54;7.85;;;3.05;;
32501;SDS011;18952;52.516;13.460;2023-03-23T02:05:32;6.68;;;3.17;;
32501;SDS011;18952;52.516;13.460;2023-03-23T02:08:03;5.07;;;2.70;;
32501;SDS011;18952;52.516;13.460;2023-03-23T02:10:30;5.40;;;2.67;;
32501;SDS011;18952;52.516;13.460;2023-03-23T02:12:57;9.25;;;3.50;;
32501;SDS011;18952;52.516;13.460;2023-03-23T02:15:25;5.75;;;3.10;;
32501;SDS011;18952;52.516;13.460;2023-03-23T02:18:07;5.57;;;3.22;;
32501;SDS011;18952;52.516;13.460;2023-03-23T02:23:28;5.10;;;2.55;;
32501;SDS011;18952;52.516;13.460;2023-03-23T02:26:19;4.70;;;2.83;;
32501;SDS011;18952;52.516;13.460;2023-03-23T02:34:25;6.78;;;2.72;;
32501;SDS011;18952;52.516;13.460;2023-03-23T02:37:01;3.72;;;2.45;;
32501;SDS011;18952;52.516;13.460;2023-03-23T02:39:47;7.38;;;2.90;;
32501;SDS011;18952;52.516;13.460;2023-03-23T02:42:26;11.15;;;3.28;;
32501;SDS011;18952;52.516;13.460;2023-03-23T02:44:56;4.90;;;2.95;;
32501;SDS011;18952;52.516;13.460;2023-03-23T02:47:25;5.28;;;2.80;;
32501;SDS011;18952;52.516;13.460;2023-03-23T02:49:54;6.07;;;2.60;;
32501;SDS011;18952;52.516;13.460;2023-03-23T02:52:23;3.45;;;2.53;;
32501;SDS011;18952;52.516;13.460;2023-03-23T02:54:52;3.28;;;2.42;;
32501;SDS011;18952;52.516;13.460;2023-03-23T02:57:20;4.15;;;2.80;;
32501;SDS011;18952;52.516;13.460;2023-03-23T02:59:47;4.40;;;3.00;;
32501;SDS011;18952;52.516;13.460;2023-03-23T03:02:14;3.80;;;2.63;;
32501;SDS011;18952;52.516;13.460;2023-03-23T03:04:48;4.57;;;2.47;;
32501;SDS011;18952;52.516;13.460;2023-03-23T03:10:18;4.35;;;2.25;;
32501;SDS011;18952;52.516;13.460;2023-03-23T03:12:55;4.88;;;2.70;;
32501;SDS011;18952;52.516;13.460;2023-03-23T03:15:44;5.93;;;2.78;;
32501;SDS011;18952;52.516;13.460;2023-03-23T03:18:38;6.15;;;2.40;;
32501;SDS011;18952;52.516;13.460;2023-03-23T03:21:17;7.65;;;2.47;;
32501;SDS011;18952;52.516;13.460;2023-03-23T03:23:46;5.38;;;2.50;;
32501;SDS011;18952;52.516;13.460;2023-03-23T03:26:13;5.10;;;2.67;;
32501;SDS011;18952;52.516;13.460;2023-03-23T03:28:39;5.22;;;2.60;;
32501;SDS011;18952;52.516;13.460;2023-03-23T03:31:05;5.40;;;2.60;;
32501;SDS011;18952;52.516;13.460;2023-03-23T03:33:33;4.85;;;2.88;;
32501;SDS011;18952;52.516;13.460;2023-03-23T03:36:00;6.32;;;2.80;;
32501;SDS011;18952;52.516;13.460;2023-03-23T03:38:28;8.07;;;3.72;;
32501;SDS011;18952;52.516;13.460;2023-03-23T03:40:54;4.75;;;2.50;;
32501;SDS011;18952;52.516;13.460;2023-03-23T03:43:21;5.43;;;2.85;;
32501;SDS011;18952;52.516;13.460;2023-03-23T03:45:47;3.60;;;2.50;;
32501;SDS011;18952;52.516;13.460;2023-03-23T03:48:12;5.30;;;2.70;;
32501;SDS011;18952;52.516;13.460;2023-03-23T03:50:38;3.42;;;2.80;;
32501;SDS011;18952;52.516;13.460;2023-03-23T03:53:04;5.70;;;2.85;;
32501;SDS011;18952;52.516;13.460;2023-03-23T03:55:30;5.97;;;2.80;;
32501;SDS011;18952;52.516;13.460;2023-03-23T03:57:56;5.72;;;2.95;;
32501;SDS011;18952;52.516;13.460;2023-03-23T04:00:22;3.60;;;2.38;;
32501;SDS011;18952;52.516;13.460;2023-03-23T04:02:48;5.13;;;2.75;;
32501;SDS011;18952;52.516;13.460;2023-03-23T04:05:15;4.20;;;2.60;;
32501;SDS011;18952;52.516;13.460;2023-03-23T04:07:41;7.15;;;2.42;;
32501;SDS011;18952;52.516;13.460;2023-03-23T04:10:10;4.45;;;2.35;;
32501;SDS011;18952;52.516;13.460;2023-03-23T04:12:36;5.68;;;2.20;;
32501;SDS011;18952;52.516;13.460;2023-03-23T04:15:02;6.10;;;2.80;;
32501;SDS011;18952;52.516;13.460;2023-03-23T04:17:28;4.95;;;2.35;;
32501;SDS011;18952;52.516;13.460;2023-03-23T04:19:54;7.32;;;3.03;;
32501;SDS011;18952;52.516;13.460;2023-03-23T04:22:20;5.95;;;2.70;;
32501;SDS011;18952;52.516;13.460;2023-03-23T04:24:46;5.43;;;2.60;;
32501;SDS011;18952;52.516;13.460;2023-03-23T04:27:11;7.25;;;3.00;;
32501;SDS011;18952;52.516;13.460;2023-03-23T04:29:37;5.65;;;2.53;;
32501;SDS011;18952;52.516;13.460;2023-03-23T04:32:03;3.38;;;2.50;;
32501;SDS011;18952;52.516;13.460;2023-03-23T04:34:28;5.75;;;2.80;;
32501;SDS011;18952;52.516;13.460;2023-03-23T04:36:54;4.63;;;3.50;;
32501;SDS011;18952;52.516;13.460;2023-03-23T04:39:19;7.28;;;3.67;;
32501;SDS011;18952;52.516;13.460;2023-03-23T04:41:45;5.45;;;3.53;;
32501;SDS011;18952;52.516;13.460;2023-03-23T04:44:11;7.53;;;3.78;;
32501;SDS011;18952;52.516;13.460;2023-03-23T04:46:37;8.48;;;3.53;;
32501;SDS011;18952;52.516;13.460;2023-03-23T04:49:02;6.03;;;3.55;;
32501;SDS011;18952;52.516;13.460;2023-03-23T04:51:29;5.55;;;3.38;;
32501;SDS011;18952;52.516;13.460;2023-03-23T04:53:54;7.07;;;3.20;;
32501;SDS011;18952;52.516;13.460;2023-03-23T04:56:20;5.65;;;3.20;;
32501;SDS011;18952;52.516;13.460;2023-03-23T04:58:46;7.07;;;3.25;;
32501;SDS011;18952;52.516;13.460;2023-03-23T05:01:12;8.07;;;3.10;;
32501;SDS011;18952;52.516;13.460;2023-03-23T05:03:38;5.55;;;3.28;;
32501;SDS011;18952;52.516;13.460;2023-03-23T05:06:05;3.72;;;2.90;;
32501;SDS011;18952;52.516;13.460;2023-03-23T05:08:31;6.15;;;3.50;;
32501;SDS011;18952;52.516;13.460;2023-03-23T05:10:58;4.60;;;2.97;;
32501;SDS011;18952;52.516;13.460;2023-03-23T05:13:29;9.32;;;3.90;;
32501;SDS011;18952;52.516;13.460;2023-03-23T05:15:55;7.85;;;3.47;;
32501;SDS011;18952;52.516;13.460;2023-03-23T05:18:20;7.15;;;3.20;;
32501;SDS011;18952;52.516;13.460;2023-03-23T05:20:46;10.52;;;3.20;;
32501;SDS011;18952;52.516;13.460;2023-03-23T05:23:12;6.18;;;3.33;;
32501;SDS011;18952;52.516;13.460;2023-03-23T05:25:38;6.53;;;3.35;;
32501;SDS011;18952;52.516;13.460;2023-03-23T05:28:05;5.40;;;3.08;;
32501;SDS011;18952;52.516;13.460;2023-03-23T05:30:32;6.28;;;3.50;;
32501;SDS011;18952;52.516;13.460;2023-03-23T05:32:59;8.95;;;3.70;;
32501;SDS011;18952;52.516;13.460;2023-03-23T05:35:24;7.22;;;2.90;;
32501;SDS011;18952;52.516;13.460;2023-03-23T05:37:50;5.13;;;3.33;;
32501;SDS011;18952;52.516;13.460;2023-03-23T05:40:16;5.68;;;3.35;;
32501;SDS011;18952;52.516;13.460;2023-03-23T05:42:42;10.40;;;3.47;;
32501;SDS011;18952;52.516;13.460;2023-03-23T05:45:08;10.20;;;3.55;;
32501;SDS011;18952;52.516;13.460;2023-03-23T05:47:35;8.75;;;3.40;;
32501;SDS011;18952;52.516;13.460;2023-03-23T05:50:00;6.28;;;2.80;;
32501;SDS011;18952;52.516;13.460;2023-03-23T05:52:26;5.13;;;2.72;;
32501;SDS011;18952;52.516;13.460;2023-03-23T05:54:52;10.00;;;2.95;;
32501;SDS011;18952;52.516;13.460;2023-03-23T05:57:18;5.75;;;3.00;;
32501;SDS011;18952;52.516;13.460;2023-03-23T05:59:44;6.80;;;3.42;;
32501;SDS011;18952;52.516;13.460;2023-03-23T06:02:11;8.25;;;3.38;;
32501;SDS011;18952;52.516;13.460;2023-03-23T06:04:36;6.90;;;2.92;;
32501;SDS011;18952;52.516;13.460;2023-03-23T06:07:03;11.50;;;2.97;;
32501;SDS011;18952;52.516;13.460;2023-03-23T06:09:29;11.18;;;4.00;;
32501;SDS011;18952;52.516;13.460;2023-03-23T06:11:55;8.73;;;2.83;;
32501;SDS011;18952;52.516;13.460;2023-03-23T06:14:21;7.93;;;3.28;;
32501;SDS011;18952;52.516;13.460;2023-03-23T06:16:46;9.63;;;3.30;;
32501;SDS011;18952;52.516;13.460;2023-03-23T06:19:12;6.97;;;3.38;;
32501;SDS011;18952;52.516;13.460;2023-03-23T06:21:39;7.65;;;3.80;;
32501;SDS011;18952;52.516;13.460;2023-03-23T06:24:05;12.00;;;3.53;;
32501;SDS011;18952;52.516;13.460;2023-03-23T06:26:32;13.30;;;3.28;;
32501;SDS011;18952;52.516;13.460;2023-03-23T06:29:00;5.57;;;2.80;;
32501;SDS011;18952;52.516;13.460;2023-03-23T06:31:30;6.95;;;3.00;;
32501;SDS011;18952;52.516;13.460;2023-03-23T06:33:59;9.57;;;3.70;;
32501;SDS011;18952;52.516;13.460;2023-03-23T06:36:30;7.97;;;3.22;;
32501;SDS011;18952;52.516;13.460;2023-03-23T06:38:57;8.10;;;3.10;;
32501;SDS011;18952;52.516;13.460;2023-03-23T06:41:22;13.27;;;3.92;;
32501;SDS011;18952;52.516;13.460;2023-03-23T06:43:48;7.35;;;3.05;;
32501;SDS011;18952;52.516;13.460;2023-03-23T06:46:14;6.03;;;3.15;;
32501;SDS011;18952;52.516;13.460;2023-03-23T06:48:39;9.52;;;3.50;;
32501;SDS011;18952;52.516;13.460;2023-03-23T06:51:06;8.48;;;3.65;;
32501;SDS011;18952;52.516;13.460;2023-03-23T06:53:32;11.45;;;3.50;;
32501;SDS011;18952;52.516;13.460;2023-03-23T06:55:57;8.98;;;3.65;;
32501;SDS011;18952;52.516;13.460;2023-03-23T06:58:24;10.48;;;3.80;;
32501;SDS011;18952;52.516;13.460;2023-03-23T07:00:54;7.07;;;3.38;;
32501;SDS011;18952;52.516;13.460;2023-03-23T07:03:20;8.90;;;3.60;;
32501;SDS011;18952;52.516;13.460;2023-03-23T07:05:46;8.82;;;4.03;;
32501;SDS011;18952;52.516;13.460;2023-03-23T07:08:12;5.45;;;3.90;;
32501;SDS011;18952;52.516;13.460;2023-03-23T07:10:38;7.38;;;3.53;;
32501;SDS011;18952;52.516;13.460;2023-03-23T07:13:04;6.93;;;3.70;;
32501;SDS011;18952;52.516;13.460;2023-03-23T07:15:29;7.43;;;3.40;;
32501;SDS011;18952;52.516;13.460;2023-03-23T07:17:55;5.05;;;3.55;;
32501;SDS011;18952;52.516;13.460;2023-03-23T07:20:21;11.05;;;3.65;;
32501;SDS011;18952;52.516;13.460;2023-03-23T07:22:47;6.43;;;3.42;;
32501;SDS011;18952;52.516;13.460;2023-03-23T07:25:14;9.07;;;3.45;;
32501;SDS011;18952;52.516;13.460;2023-03-23T07:27:40;4.53;;;3.40;;
32501;SDS011;18952;52.516;13.460;2023-03-23T07:30:05;6.35;;;3.70;;
32501;SDS011;18952;52.516;13.460;2023-03-23T07:32:32;6.70;;;3.40;;
32501;SDS011;18952;52.516;13.460;2023-03-23T07:34:57;7.88;;;4.15;;
32501;SDS011;18952;52.516;13.460;2023-03-23T07:37:23;9.07;;;4.15;;
32501;SDS011;18952;52.516;13.460;2023-03-23T07:39:49;7.63;;;4.07;;
32501;SDS011;18952;52.516;13.460;2023-03-23T07:42:15;9.13;;;4.15;;
32501;SDS011;18952;52.516;13.460;2023-03-23T07:44:40;10.35;;;4.32;;
32501;SDS011;18952;52.516;13.460;2023-03-23T07:47:06;7.90;;;4.20;;
32501;SDS011;18952;52.516;13.460;2023-03-23T07:49:32;7.45;;;3.47;;
32501;SDS011;18952;52.516;13.460;2023-03-23T07:51:58;6.10;;;3.70;;
32501;SDS011;18952;52.516;13.460;2023-03-23T07:54:23;7.60;;;3.80;;
32501;SDS011;18952;52.516;13.460;2023-03-23T07:56:49;9.57;;;5.15;;
32501;SDS011;18952;52.516;13.460;2023-03-23T07:59:16;8.88;;;4.82;;
32501;SDS011;18952;52.516;13.460;2023-03-23T08:01:44;12.50;;;5.35;;
32501;SDS011;18952;52.516;13.460;2023-03-23T08:04:09;9.00;;;4.35;;
32501;SDS011;18952;52.516;13.460;2023-03-23T08:06:36;8.10;;;3.92;;
32501;SDS011;18952;52.516;13.460;2023-03-23T08:09:03;5.53;;;3.83;;
32501;SDS011;18952;52.516;13.460;2023-03-23T08:11:28;7.35;;;3.83;;
32501;SDS011;18952;52.516;13.460;2023-03-23T08:13:55;5.53;;;3.78;;
32501;SDS011;18952;52.516;13.460;2023-03-23T08:16:21;5.65;;;3.83;;
32501;SDS011;18952;52.516;13.460;2023-03-23T08:18:46;7.55;;;4.35;;
32501;SDS011;18952;52.516;13.460;2023-03-23T08:21:13;6.85;;;4.40;;
32501;SDS011;18952;52.516;13.460;2023-03-23T08:23:40;6.60;;;3.90;;
32501;SDS011;18952;52.516;13.460;2023-03-23T08:26:06;6.55;;;3.92;;
32501;SDS011;18952;52.516;13.460;2023-03-23T08:28:33;9.10;;;4.38;;
32501;SDS011;18952;52.516;13.460;2023-03-23T08:31:00;6.05;;;4.30;;
32501;SDS011;18952;52.516;13.460;2023-03-23T08:33:30;5.80;;;3.97;;
32501;SDS011;18952;52.516;13.460;2023-03-23T08:35:57;7.38;;;3.30;;
32501;SDS011;18952;52.516;13.460;2023-03-23T08:38:24;7.88;;;3.88;;
32501;SDS011;18952;52.516;13.460;2023-03-23T08:40:51;8.73;;;3.90;;
32501;SDS011;18952;52.516;13.460;2023-03-23T08:43:17;9.73;;;4.18;;
32501;SDS011;18952;52.516;13.460;2023-03-23T08:45:43;6.55;;;3.60;;
32501;SDS011;18952;52.516;13.460;2023-03-23T08:48:09;5.20;;;3.83;;
32501;SDS011;18952;52.516;13.460;2023-03-23T08:50:35;8.77;;;3.97;;
32501;SDS011;18952;52.516;13.460;2023-03-23T08:53:01;6.93;;;3.67;;
32501;SDS011;18952;52.516;13.460;2023-03-23T08:55:28;5.53;;;3.85;;
32501;SDS011;18952;52.516;13.460;2023-03-23T08:57:54;6.53;;;3.58;;
32501;SDS011;18952;52.516;13.460;2023-03-23T09:00:20;6.88;;;3.70;;
32501;SDS011;18952;52.516;13.460;2023-03-23T09:02:48;7.47;;;3.95;;
32501;SDS011;18952;52.516;13.460;2023-03-23T09:05:15;5.35;;;2.92;;
32501;SDS011;18952;52.516;13.460;2023-03-23T09:07:45;5.03;;;2.90;;
32501;SDS011;18952;52.516;13.460;2023-03-23T09:10:12;6.82;;;3.13;;
32501;SDS011;18952;52.516;13.460;2023-03-23T09:12:39;4.97;;;2.95;;
32501;SDS011;18952;52.516;13.460;2023-03-23T09:15:05;4.97;;;3.40;;
32501;SDS011;18952;52.516;13.460;2023-03-23T09:17:34;8.88;;;3.58;;
32501;SDS011;18952;52.516;13.460;2023-03-23T09:20:02;5.70;;;2.78;;
32501;SDS011;18952;52.516;13.460;2023-03-23T09:22:29;6.75;;;2.65;;
32501;SDS011;18952;52.516;13.460;2023-03-23T09:24:55;3.05;;;2.33;;
32501;SDS011;18952;52.516;13.460;2023-03-23T09:27:21;3.47;;;2.38;;
32501;SDS011;18952;52.516;13.460;2023-03-23T09:29:47;7.57;;;2.60;;
32501;SDS011;18952;52.516;13.460;2023-03-23T09:32:14;3.63;;;2.20;;
32501;SDS011;18952;52.516;13.460;2023-03-23T09:34:40;5.45;;;2.60;;
32501;SDS011;18952;52.516;13.460;2023-03-23T09:37:06;6.40;;;2.78;;
32501;SDS011;18952;52.516;13.460;2023-03-23T09:39:32;4.38;;;2.55;;
32501;SDS011;18952;52.516;13.460;2023-03-23T09:49:43;3.20;;;2.60;;
32501;SDS011;18952;52.516;13.460;2023-03-23T09:52:18;5.90;;;2.53;;
32501;SDS011;18952;52.516;13.460;2023-03-23T09:54:48;4.68;;;2.80;;
32501;SDS011;18952;52.516;13.460;2023-03-23T09:57:20;3.60;;;2.53;;
32501;SDS011;18952;52.516;13.460;2023-03-23T10:02:38;3.55;;;2.70;;
32501;SDS011;18952;52.516;13.460;2023-03-23T10:05:42;5.45;;;2.42;;
32501;SDS011;18952;52.516;13.460;2023-03-23T10:08:13;3.53;;;2.33;;
32501;SDS011;18952;52.516;13.460;2023-03-23T10:18:49;4.10;;;2.28;;
32501;SDS011;18952;52.516;13.460;2023-03-23T10:21:23;5.00;;;2.30;;
32501;SDS011;18952;52.516;13.460;2023-03-23T10:23:58;2.72;;;2.00;;
32501;SDS011;18952;52.516;13.460;2023-03-23T10:29:16;4.13;;;2.00;;
32501;SDS011;18952;52.516;13.460;2023-03-23T10:31:54;4.68;;;2.60;;
32501;SDS011;18952;52.516;13.460;2023-03-23T10:37:21;5.50;;;2.13;;
32501;SDS011;18952;52.516;13.460;2023-03-23T10:39:54;3.85;;;1.88;;
32501;SDS011;18952;52.516;13.460;2023-03-23T10:42:31;3.63;;;1.58;;
32501;SDS011;18952;52.516;13.460;2023-03-23T10:45:00;3.03;;;1.70;;
32501;SDS011;18952;52.516;13.460;2023-03-23T10:47:36;3.83;;;1.60;;
32501;SDS011;18952;52.516;13.460;2023-03-23T10:50:06;5.32;;;2.00;;
32501;SDS011;18952;52.516;13.460;2023-03-23T10:52:41;5.10;;;1.95;;
32501;SDS011;18952;52.516;13.460;2023-03-23T10:55:10;2.72;;;1.60;;
32501;SDS011;18952;52.516;13.460;2023-03-23T10:57:41;3.90;;;2.08;;
32501;SDS011;18952;52.516;13.460;2023-03-23T11:00:17;5.43;;;1.80;;
32501;SDS011;18952;52.516;13.460;2023-03-23T11:05:41;2.88;;;1.65;;
32501;SDS011;18952;52.516;13.460;2023-03-23T11:08:11;7.03;;;2.30;;
32501;SDS011;18952;52.516;13.460;2023-03-23T11:10:40;4.57;;;2.10;;
32501;SDS011;18952;52.516;13.460;2023-03-23T11:13:13;3.28;;;2.10;;
32501;SDS011;18952;52.516;13.460;2023-03-23T11:15:40;5.72;;;2.28;;
32501;SDS011;18952;52.516;13.460;2023-03-23T11:18:12;5.13;;;3.63;;
32501;SDS011;18952;52.516;13.460;2023-03-23T11:20:44;6.68;;;2.28;;
32501;SDS011;18952;52.516;13.460;2023-03-23T11:25:55;3.28;;;2.30;;
32501;SDS011;18952;52.516;13.460;2023-03-23T11:28:21;5.65;;;2.08;;
32501;SDS011;18952;52.516;13.460;2023-03-23T11:30:52;2.53;;;1.70;;
32501;SDS011;18952;52.516;13.460;2023-03-23T11:33:20;6.78;;;2.40;;
32501;SDS011;18952;52.516;13.460;2023-03-23T11:35:45;5.32;;;1.90;;
32501;SDS011;18952;52.516;13.460;2023-03-23T11:38:17;3.67;;;2.30;;
32501;SDS011;18952;52.516;13.460;2023-03-23T11:40:49;3.85;;;2.17;;
32501;SDS011;18952;52.516;13.460;2023-03-23T11:43:20;6.72;;;2.22;;
32501;SDS011;18952;52.516;13.460;2023-03-23T11:48:54;3.47;;;1.90;;
32501;SDS011;18952;52.516;13.460;2023-03-23T11:54:04;4.25;;;2.30;;
32501;SDS011;18952;52.516;13.460;2023-03-23T11:56:40;5.18;;;2.10;;
32501;SDS011;18952;52.516;13.460;2023-03-23T11:59:10;4.60;;;1.83;;
32501;SDS011;18952;52.516;13.460;2023-03-23T12:10:16;6.00;;;2.20;;
32501;SDS011;18952;52.516;13.460;2023-03-23T12:15:30;3.50;;;2.13;;
32501;SDS011;18952;52.516;13.460;2023-03-23T12:20:57;4.38;;;2.38;;
32501;SDS011;18952;52.516;13.460;2023-03-23T12:32:05;4.43;;;2.10;;
32501;SDS011;18952;52.516;13.460;2023-03-23T12:48:18;5.30;;;1.83;;
32501;SDS011;18952;52.516;13.460;2023-03-23T12:53:52;6.22;;;2.30;;
32501;SDS011;18952;52.516;13.460;2023-03-23T12:56:52;7.18;;;2.00;;
32501;SDS011;18952;52.516;13.460;2023-03-23T12:59:38;4.60;;;2.30;;
32501;SDS011;18952;52.516;13.460;2023-03-23T13:04:40;3.97;;;2.00;;
32501;SDS011;18952;52.516;13.460;2023-03-23T13:07:12;4.03;;;1.95;;
32501;SDS011;18952;52.516;13.460;2023-03-23T13:12:28;4.80;;;2.20;;
32501;SDS011;18952;52.516;13.460;2023-03-23T13:23:27;6.78;;;2.00;;
32501;SDS011;18952;52.516;13.460;2023-03-23T13:31:36;4.57;;;2.00;;
32501;SDS011;18952;52.516;13.460;2023-03-23T13:39:19;5.15;;;2.13;;
32501;SDS011;18952;52.516;13.460;2023-03-23T13:41:48;3.97;;;2.10;;
32501;SDS011;18952;52.516;13.460;2023-03-23T13:44:25;7.05;;;2.10;;
32501;SDS011;18952;52.516;13.460;2023-03-23T13:47:15;6.70;;;2.10;;
32501;SDS011;18952;52.516;13.460;2023-03-23T13:49:51;3.63;;;1.95;;
32501;SDS011;18952;52.516;13.460;2023-03-23T13:57:51;7.88;;;2.75;;
32501;SDS011;18952;52.516;13.460;2023-03-23T14:00:27;6.05;;;2.00;;
32501;SDS011;18952;52.516;13.460;2023-03-23T14:05:34;4.18;;;1.73;;
32501;SDS011;18952;52.516;13.460;2023-03-23T14:08:39;5.88;;;2.05;;
32501;SDS011;18952;52.516;13.460;2023-03-23T14:11:11;4.57;;;1.77;;
32501;SDS011;18952;52.516;13.460;2023-03-23T14:18:55;4.63;;;1.70;;
32501;SDS011;18952;52.516;13.460;2023-03-23T14:21:30;4.50;;;1.95;;
32501;SDS011;18952;52.516;13.460;2023-03-23T14:24:00;7.32;;;1.90;;
32501;SDS011;18952;52.516;13.460;2023-03-23T14:26:32;4.78;;;1.73;;
32501;SDS011;18952;52.516;13.460;2023-03-23T14:28:59;5.38;;;1.58;;
32501;SDS011;18952;52.516;13.460;2023-03-23T14:31:26;5.03;;;1.70;;
32501;SDS011;18952;52.516;13.460;2023-03-23T14:33:53;3.67;;;1.65;;
32501;SDS011;18952;52.516;13.460;2023-03-23T14:36:28;4.75;;;1.70;;
32501;SDS011;18952;52.516;13.460;2023-03-23T14:39:00;3.65;;;1.88;;
32501;SDS011;18952;52.516;13.460;2023-03-23T14:41:30;4.22;;;1.65;;
32501;SDS011;18952;52.516;13.460;2023-03-23T14:43:57;5.03;;;2.25;;
32501;SDS011;18952;52.516;13.460;2023-03-23T14:46:25;6.32;;;1.95;;
32501;SDS011;18952;52.516;13.460;2023-03-23T14:48:52;5.22;;;2.00;;
32501;SDS011;18952;52.516;13.460;2023-03-23T14:51:20;5.05;;;2.17;;
32501;SDS011;18952;52.516;13.460;2023-03-23T14:53:46;6.40;;;2.60;;
32501;SDS011;18952;52.516;13.460;2023-03-23T14:56:13;4.22;;;2.03;;
32501;SDS011;18952;52.516;13.460;2023-03-23T14:58:47;6.35;;;2.00;;
32501;SDS011;18952;52.516;13.460;2023-03-23T15:01:19;5.13;;;1.93;;
32501;SDS011;18952;52.516;13.460;2023-03-23T15:03:53;5.78;;;2.38;;
32501;SDS011;18952;52.516;13.460;2023-03-23T15:06:47;3.92;;;2.05;;
32501;SDS011;18952;52.516;13.460;2023-03-23T15:09:18;4.25;;;2.10;;
32501;SDS011;18952;52.516;13.460;2023-03-23T15:11:54;4.10;;;2.05;;
32501;SDS011;18952;52.516;13.460;2023-03-23T15:17:22;3.72;;;1.75;;
32501;SDS011;18952;52.516;13.460;2023-03-23T15:19:53;4.95;;;2.40;;
32501;SDS011;18952;52.516;13.460;2023-03-23T15:22:25;3.92;;;2.35;;
32501;SDS011;18952;52.516;13.460;2023-03-23T15:24:53;4.88;;;2.53;;
32501;SDS011;18952;52.516;13.460;2023-03-23T15:27:33;6.13;;;2.38;;
32501;SDS011;18952;52.516;13.460;2023-03-23T15:33:11;5.63;;;2.60;;
32501;SDS011;18952;52.516;13.460;2023-03-23T15:35:39;4.75;;;1.98;;
32501;SDS011;18952;52.516;13.460;2023-03-23T15:38:30;5.90;;;3.45;;
32501;SDS011;18952;52.516;13.460;2023-03-23T15:41:23;6.28;;;2.05;;
32501;SDS011;18952;52.516;13.460;2023-03-23T15:43:53;5.95;;;1.83;;
32501;SDS011;18952;52.516;13.460;2023-03-23T15:46:22;5.43;;;2.92;;
32501;SDS011;18952;52.516;13.460;2023-03-23T15:49:08;4.90;;;2.28;;
32501;SDS011;18952;52.516;13.460;2023-03-23T15:51:36;5.72;;;2.03;;
32501;SDS011;18952;52.516;13.460;2023-03-23T15:54:02;5.10;;;1.98;;
32501;SDS011;18952;52.516;13.460;2023-03-23T15:56:29;5.35;;;1.73;;
32501;SDS011;18952;52.516;13.460;2023-03-23T15:58:54;3.03;;;1.60;;
32501;SDS011;18952;52.516;13.460;2023-03-23T16:01:24;6.63;;;2.17;;
32501;SDS011;18952;52.516;13.460;2023-03-23T16:03:59;5.75;;;2.15;;
32501;SDS011;18952;52.516;13.460;2023-03-23T16:06:40;6.68;;;1.95;;
32501;SDS011;18952;52.516;13.460;2023-03-23T16:09:13;4.15;;;1.58;;
32501;SDS011;18952;52.516;13.460;2023-03-23T16:11:42;3.58;;;2.08;;
32501;SDS011;18952;52.516;13.460;2023-03-23T16:14:09;6.03;;;1.90;;
32501;SDS011;18952;52.516;13.460;2023-03-23T16:16:44;5.28;;;2.50;;
32501;SDS011;18952;52.516;13.460;2023-03-23T16:19:16;5.55;;;2.67;;
32501;SDS011;18952;52.516;13.460;2023-03-23T16:21:44;7.47;;;1.95;;
32501;SDS011;18952;52.516;13.460;2023-03-23T16:24:11;7.25;;;1.80;;
32501;SDS011;18952;52.516;13.460;2023-03-23T16:26:39;4.47;;;1.50;;
32501;SDS011;18952;52.516;13.460;2023-03-23T16:29:11;5.85;;;2.03;;
32501;SDS011;18952;52.516;13.460;2023-03-23T16:31:54;4.15;;;1.80;;
32501;SDS011;18952;52.516;13.460;2023-03-23T16:34:22;6.53;;;1.80;;
32501;SDS011;18952;52.516;13.460;2023-03-23T16:36:48;6.00;;;2.40;;
32501;SDS011;18952;52.516;13.460;2023-03-23T16:39:16;6.30;;;1.95;;
32501;SDS011;18952;52.516;13.460;2023-03-23T16:41:43;4.22;;;1.90;;
32501;SDS011;18952;52.516;13.460;2023-03-23T16:44:10;6.55;;;2.58;;
32501;SDS011;18952;52.516;13.460;2023-03-23T16:46:37;5.45;;;2.65;;
32501;SDS011;18952;52.516;13.460;2023-03-23T16:49:04;6.35;;;2.38;;
32501;SDS011;18952;52.516;13.460;2023-03-23T16:51:31;4.22;;;2.60;;
32501;SDS011;18952;52.516;13.460;2023-03-23T16:53:59;6.45;;;2.40;;
32501;SDS011;18952;52.516;13.460;2023-03-23T16:56:26;5.85;;;2.10;;
32501;SDS011;18952;52.516;13.460;2023-03-23T16:58:53;4.85;;;1.77;;